createdAt,value
2022-11-03T00:00:59.104Z,11.56
2022-11-03T00:01:59.271Z,11.53
2022-11-03T00:02:59.181Z,11.53
2022-11-03T00:03:59.347Z,11.56
2022-11-03T00:04:59.083Z,11.61
2022-11-03T00:05:59.033Z,11.62
2022-11-03T00:06:59.029Z,11.64
2022-11-03T00:07:59.097Z,11.65
2022-11-03T00:08:59.089Z,11.65
2022-11-03T00:09:58.995Z,11.64
2022-11-03T00:10:59.273Z,11.61
2022-11-03T00:11:59.030Z,11.62
2022-11-03T00:12:58.963Z,11.61
2022-11-03T00:13:58.965Z,11.62
2022-11-03T00:14:59.012Z,11.62
2022-11-03T00:15:58.936Z,11.67
2022-11-03T00:16:58.953Z,11.71
2022-11-03T00:17:58.916Z,11.74
2022-11-03T00:18:58.938Z,11.72
2022-11-03T00:19:58.898Z,11.72
2022-11-03T00:20:58.935Z,11.77
2022-11-03T00:21:58.864Z,11.77
2022-11-03T00:22:58.845Z,11.80
2022-11-03T00:23:58.845Z,11.77
2022-11-03T00:24:58.829Z,11.77
2022-11-03T00:25:58.833Z,11.78
2022-11-03T00:26:58.836Z,11.78
2022-11-03T00:27:58.861Z,11.78
2022-11-03T00:28:58.811Z,11.78
2022-11-03T00:29:59.094Z,11.77
2022-11-03T00:30:58.751Z,11.75
2022-11-03T00:31:58.777Z,11.74
2022-11-03T00:32:58.780Z,11.70
2022-11-03T00:33:58.722Z,11.71
2022-11-03T00:34:58.747Z,11.71
2022-11-03T00:35:58.714Z,11.70
2022-11-03T00:36:58.699Z,11.70
2022-11-03T00:37:58.709Z,11.70
2022-11-03T00:38:58.716Z,11.68
2022-11-03T00:39:58.676Z,11.67
2022-11-03T00:40:58.685Z,11.64
2022-11-03T00:41:58.954Z,11.65
2022-11-03T00:42:58.640Z,11.67
2022-11-03T00:43:58.621Z,11.68
2022-11-03T00:44:58.949Z,11.67
2022-11-03T00:45:58.591Z,11.65
2022-11-03T00:46:58.607Z,11.64
2022-11-03T00:47:58.576Z,11.62
2022-11-03T00:48:58.849Z,11.64
2022-11-03T00:49:58.574Z,11.64
2022-11-03T00:50:58.610Z,11.62
2022-11-03T00:51:58.533Z,11.62
2022-11-03T00:52:58.521Z,11.59
2022-11-03T00:53:58.515Z,11.59
2022-11-03T00:54:58.541Z,11.56
2022-11-03T00:55:58.519Z,11.54
2022-11-03T00:56:58.550Z,11.53
2022-11-03T00:57:58.509Z,11.54
2022-11-03T00:58:58.463Z,11.53
2022-11-03T00:59:58.449Z,11.53
2022-11-03T01:00:58.504Z,11.56
2022-11-03T01:01:58.818Z,11.53
2022-11-03T01:02:58.439Z,11.54
2022-11-03T01:03:58.423Z,11.52
2022-11-03T01:04:58.406Z,11.53
2022-11-03T01:05:58.400Z,11.50
2022-11-03T01:06:58.383Z,11.47
2022-11-03T01:08:58.674Z,11.46
2022-11-03T01:09:58.354Z,11.43
2022-11-03T01:10:58.355Z,11.39
2022-11-03T01:11:58.333Z,11.39
2022-11-03T01:12:58.296Z,11.41
2022-11-03T01:13:58.336Z,11.36
2022-11-03T01:14:58.349Z,11.35
2022-11-03T01:15:58.574Z,11.36
2022-11-03T01:16:58.264Z,11.36
2022-11-03T01:17:58.243Z,11.35
2022-11-03T01:18:58.250Z,11.36
2022-11-03T01:19:58.231Z,11.35
2022-11-03T01:20:58.299Z,11.32
2022-11-03T01:21:58.216Z,11.29
2022-11-03T01:22:58.475Z,11.31
2022-11-03T01:23:58.182Z,11.29
2022-11-03T01:24:58.176Z,11.29
2022-11-03T01:25:58.159Z,11.29
2022-11-03T01:26:58.185Z,11.28
2022-11-03T01:27:58.191Z,11.27
2022-11-03T01:28:58.153Z,11.25
2022-11-03T01:29:58.431Z,11.21
2022-11-03T01:30:58.111Z,11.24
2022-11-03T01:31:58.183Z,11.17
2022-11-03T01:32:58.121Z,11.17
2022-11-03T01:33:58.075Z,11.17
2022-11-03T01:34:58.062Z,11.19
2022-11-03T01:35:58.057Z,11.20
2022-11-03T01:36:58.331Z,11.17
2022-11-03T01:37:58.043Z,11.17
2022-11-03T01:38:58.082Z,11.14
2022-11-03T01:39:58.026Z,11.14
2022-11-03T01:40:58.016Z,11.14
2022-11-03T01:41:57.987Z,11.16
2022-11-03T01:42:57.986Z,11.13
2022-11-03T01:43:58.268Z,11.13
2022-11-03T01:44:57.992Z,11.14
2022-11-03T01:45:57.962Z,11.13
2022-11-03T01:46:57.980Z,11.13
2022-11-03T01:48:57.909Z,11.13
2022-11-03T01:49:57.906Z,11.13
2022-11-03T01:50:59.135Z,11.11
2022-11-03T01:51:57.874Z,11.10
2022-11-03T01:52:57.887Z,11.10
2022-11-03T01:53:57.853Z,11.09
2022-11-03T01:54:57.854Z,11.09
2022-11-03T01:55:57.873Z,11.10
2022-11-03T01:56:57.865Z,11.09
2022-11-03T01:57:58.090Z,11.07
2022-11-03T01:58:57.814Z,11.06
2022-11-03T01:59:57.810Z,11.03
2022-11-03T02:00:57.841Z,11.03
2022-11-03T02:01:57.937Z,11.02
2022-11-03T02:02:57.814Z,11.01
2022-11-03T02:03:57.747Z,11.02
2022-11-03T02:04:57.785Z,11.01
2022-11-03T02:05:57.741Z,11.01
2022-11-03T02:06:57.715Z,10.98
2022-11-03T02:07:57.948Z,10.98
2022-11-03T02:08:57.735Z,10.98
2022-11-03T02:09:57.696Z,10.96
2022-11-03T02:10:57.978Z,10.96
2022-11-03T02:11:57.661Z,10.94
2022-11-03T02:12:57.673Z,10.91
2022-11-03T02:13:57.647Z,10.91
2022-11-03T02:14:57.663Z,10.89
2022-11-03T02:15:57.614Z,10.89
2022-11-03T02:16:57.609Z,10.91
2022-11-03T02:17:57.871Z,10.92
2022-11-03T02:18:57.587Z,10.96
2022-11-03T02:19:57.573Z,10.96
2022-11-03T02:20:57.599Z,10.95
2022-11-03T02:21:57.561Z,10.95
2022-11-03T02:22:57.545Z,10.94
2022-11-03T02:23:57.531Z,10.94
2022-11-03T02:24:57.821Z,10.94
2022-11-03T02:25:57.525Z,10.94
2022-11-03T02:26:57.530Z,10.96
2022-11-03T02:27:57.482Z,10.95
2022-11-03T02:28:57.495Z,10.95
2022-11-03T02:29:57.471Z,10.96
2022-11-03T02:30:57.462Z,10.96
2022-11-03T02:31:57.759Z,10.94
2022-11-03T02:32:57.463Z,10.94
2022-11-03T02:33:57.423Z,10.94
2022-11-03T02:34:57.441Z,10.91
2022-11-03T02:35:57.424Z,10.91
2022-11-03T02:36:57.392Z,10.91
2022-11-03T02:37:57.377Z,10.94
2022-11-03T02:38:57.713Z,10.92
2022-11-03T02:39:57.365Z,10.91
2022-11-03T02:40:57.356Z,10.92
2022-11-03T02:41:57.338Z,10.91
2022-11-03T02:42:57.331Z,10.89
2022-11-03T02:43:57.310Z,10.91
2022-11-03T02:44:57.349Z,10.94
2022-11-03T02:45:57.606Z,10.95
2022-11-03T02:46:57.285Z,10.92
2022-11-03T02:47:57.271Z,10.91
2022-11-03T02:48:57.256Z,10.89
2022-11-03T02:49:57.244Z,10.91
2022-11-03T02:50:57.342Z,10.88
2022-11-03T02:51:57.228Z,10.88
2022-11-03T02:52:57.516Z,10.89
2022-11-03T02:53:57.278Z,10.89
2022-11-03T02:54:57.193Z,10.88
2022-11-03T02:55:57.221Z,10.89
2022-11-03T02:56:57.241Z,10.88
2022-11-03T02:57:57.176Z,10.89
2022-11-03T02:58:57.176Z,10.91
2022-11-03T02:59:57.420Z,10.94
2022-11-03T03:00:57.195Z,10.94
2022-11-03T03:01:57.265Z,10.95
2022-11-03T03:02:57.139Z,10.96
2022-11-03T03:03:57.114Z,10.95
2022-11-03T03:04:57.098Z,10.96
2022-11-03T03:05:57.104Z,10.96
2022-11-03T03:06:57.363Z,10.96
2022-11-03T03:07:57.052Z,10.95
2022-11-03T03:08:57.097Z,10.98
2022-11-03T03:09:57.029Z,11.01
2022-11-03T03:10:57.024Z,11.02
2022-11-03T03:11:57.016Z,11.02
2022-11-03T03:12:57.004Z,11.06
2022-11-03T03:13:57.279Z,11.06
2022-11-03T03:14:57.009Z,11.09
2022-11-03T03:15:56.966Z,11.09
2022-11-03T03:16:56.951Z,11.11
2022-11-03T03:17:56.945Z,11.11
2022-11-03T03:18:56.938Z,11.13
2022-11-03T03:19:56.915Z,11.11
2022-11-03T03:20:57.610Z,11.16
2022-11-03T03:21:56.943Z,11.14
2022-11-03T03:22:56.893Z,11.16
2022-11-03T03:23:56.872Z,11.20
2022-11-03T03:24:56.891Z,11.20
2022-11-03T03:25:56.877Z,11.24
2022-11-03T03:26:56.884Z,11.25
2022-11-03T03:27:56.842Z,11.27
2022-11-03T03:28:56.829Z,11.27
2022-11-03T03:29:56.809Z,11.31
2022-11-03T03:30:56.799Z,11.31
2022-11-03T03:31:56.803Z,11.35
2022-11-03T03:32:57.116Z,11.38
2022-11-03T03:34:05.178Z,11.36
2022-11-03T03:34:56.771Z,11.36
2022-11-03T03:35:56.755Z,11.38
2022-11-03T03:36:56.747Z,11.36
2022-11-03T03:37:56.735Z,11.35
2022-11-03T03:38:56.763Z,11.32
2022-11-03T03:39:56.706Z,11.34
2022-11-03T03:40:56.702Z,11.34
2022-11-03T03:41:56.703Z,11.38
2022-11-03T03:42:56.688Z,11.43
2022-11-03T03:43:56.661Z,11.46
2022-11-03T03:44:56.975Z,11.46
2022-11-03T03:45:56.638Z,11.49
2022-11-03T03:46:56.633Z,11.50
2022-11-03T03:47:57.876Z,11.49
2022-11-03T03:48:56.644Z,11.49
2022-11-03T03:49:56.608Z,11.47
2022-11-03T03:50:56.622Z,11.50
2022-11-03T03:51:56.863Z,11.49
2022-11-03T03:52:56.571Z,11.49
2022-11-03T03:53:56.576Z,11.50
2022-11-03T03:54:56.590Z,11.49
2022-11-03T03:55:56.538Z,11.50
2022-11-03T03:56:56.575Z,11.54
2022-11-03T03:57:59.447Z,11.53
2022-11-03T03:58:56.780Z,11.53
2022-11-03T03:59:56.485Z,11.54
2022-11-03T04:00:56.554Z,11.54
2022-11-03T04:01:57.498Z,11.56
2022-11-03T04:02:56.510Z,11.54
2022-11-03T04:03:56.455Z,11.53
2022-11-03T04:04:56.439Z,11.53
2022-11-03T04:05:56.856Z,11.53
2022-11-03T04:06:56.422Z,11.52
2022-11-03T04:07:56.421Z,11.53
2022-11-03T04:08:56.451Z,11.54
2022-11-03T04:09:56.421Z,11.54
2022-11-03T04:10:56.368Z,11.57
2022-11-03T04:11:56.365Z,11.59
2022-11-03T04:12:56.677Z,11.57
2022-11-03T04:13:56.360Z,11.62
2022-11-03T04:14:56.390Z,11.62
2022-11-03T04:15:56.319Z,11.64
2022-11-03T04:16:56.323Z,11.64
2022-11-03T04:17:56.318Z,11.62
2022-11-03T04:18:56.305Z,11.61
2022-11-03T04:19:56.556Z,11.61
2022-11-03T04:20:56.323Z,11.59
2022-11-03T04:21:56.255Z,11.57
2022-11-03T04:22:56.245Z,11.61
2022-11-03T04:23:56.251Z,11.59
2022-11-03T04:24:56.231Z,11.57
2022-11-03T04:25:56.217Z,11.61
2022-11-03T04:26:56.526Z,11.57
2022-11-03T04:27:56.186Z,11.61
2022-11-03T04:28:56.209Z,11.62
2022-11-03T04:29:56.187Z,11.62
2022-11-03T04:30:58.722Z,11.62
2022-11-03T04:31:56.167Z,11.62
2022-11-03T04:32:56.175Z,11.61
2022-11-03T04:33:56.428Z,11.61
2022-11-03T04:34:56.115Z,11.61
2022-11-03T04:35:56.129Z,11.61
2022-11-03T04:36:56.111Z,11.64
2022-11-03T04:37:56.129Z,11.67
2022-11-03T04:38:56.186Z,11.68
2022-11-03T04:39:56.068Z,11.68
2022-11-03T04:40:56.373Z,11.68
2022-11-03T04:41:56.053Z,11.67
2022-11-03T04:42:56.054Z,11.65
2022-11-03T04:43:56.030Z,11.67
2022-11-03T04:44:56.040Z,11.67
2022-11-03T04:45:56.008Z,11.68
2022-11-03T04:46:55.999Z,11.67
2022-11-03T04:47:56.289Z,11.68
2022-11-03T04:48:56.019Z,11.71
2022-11-03T04:49:55.972Z,11.72
2022-11-03T04:50:55.983Z,11.74
2022-11-03T04:51:55.933Z,11.72
2022-11-03T04:52:55.967Z,11.74
2022-11-03T04:53:55.912Z,11.74
2022-11-03T04:54:55.904Z,11.74
2022-11-03T04:55:55.900Z,11.74
2022-11-03T04:56:55.929Z,11.71
2022-11-03T04:57:55.889Z,11.72
2022-11-03T04:58:55.874Z,11.75
2022-11-03T04:59:55.851Z,11.74
2022-11-03T05:00:56.239Z,11.72
2022-11-03T05:01:55.995Z,11.71
2022-11-03T05:02:56.553Z,11.71
2022-11-03T05:03:55.867Z,11.71
2022-11-03T05:04:55.810Z,11.70
2022-11-03T05:05:55.811Z,11.71
2022-11-03T05:06:55.818Z,11.70
2022-11-03T05:07:56.070Z,11.71
2022-11-03T05:08:55.797Z,11.71
2022-11-03T05:09:55.784Z,11.74
2022-11-03T05:10:55.765Z,11.77
2022-11-03T05:11:55.739Z,11.77
2022-11-03T05:12:55.731Z,11.77
2022-11-03T05:13:55.713Z,11.75
2022-11-03T05:14:58.691Z,11.77
2022-11-03T05:15:55.694Z,11.77
2022-11-03T05:16:55.688Z,11.74
2022-11-03T05:17:55.679Z,11.75
2022-11-03T05:18:55.678Z,11.78
2022-11-03T05:19:55.657Z,11.77
2022-11-03T05:20:55.692Z,11.77
2022-11-03T05:21:55.623Z,11.80
2022-11-03T05:22:55.908Z,11.80
2022-11-03T05:23:55.608Z,11.80
2022-11-03T05:24:55.590Z,11.78
2022-11-03T05:25:55.595Z,11.83
2022-11-03T05:26:55.636Z,11.83
2022-11-03T05:27:55.605Z,11.83
2022-11-03T05:28:55.577Z,11.85
2022-11-03T05:29:57.986Z,11.86
2022-11-03T05:30:55.557Z,11.89
2022-11-03T05:31:55.537Z,11.89
2022-11-03T05:32:55.556Z,11.86
2022-11-03T05:33:55.535Z,11.89
2022-11-03T05:34:55.495Z,11.89
2022-11-03T05:35:55.507Z,11.87
2022-11-03T05:36:55.748Z,11.87
2022-11-03T05:37:55.476Z,11.89
2022-11-03T05:38:55.482Z,11.90
2022-11-03T05:39:55.478Z,11.93
2022-11-03T05:40:55.433Z,11.96
2022-11-03T05:41:55.412Z,11.96
2022-11-03T05:42:55.437Z,11.97
2022-11-03T05:43:55.680Z,11.97
2022-11-03T05:44:55.443Z,11.99
2022-11-03T05:45:56.404Z,11.97
2022-11-03T05:46:55.370Z,11.97
2022-11-03T05:47:55.351Z,11.97
2022-11-03T05:48:55.342Z,11.99
2022-11-03T05:49:55.323Z,11.97
2022-11-03T05:50:55.652Z,12.04
2022-11-03T05:51:55.300Z,12.05
2022-11-03T05:52:55.314Z,12.06
2022-11-03T05:53:55.290Z,12.08
2022-11-03T05:54:55.282Z,12.08
2022-11-03T05:55:55.275Z,12.06
2022-11-03T05:56:55.305Z,12.05
2022-11-03T05:57:55.539Z,12.08
2022-11-03T05:58:55.244Z,12.09
2022-11-03T05:59:55.249Z,12.11
2022-11-03T06:00:55.246Z,12.12
2022-11-03T06:01:55.333Z,12.13
2022-11-03T06:02:55.374Z,12.13
2022-11-03T06:03:55.178Z,12.13
2022-11-03T06:04:55.163Z,12.13
2022-11-03T06:05:55.184Z,12.15
2022-11-03T06:06:55.168Z,12.15
2022-11-03T06:07:55.131Z,12.16
2022-11-03T06:08:55.207Z,12.16
2022-11-03T06:09:55.131Z,12.19
2022-11-03T06:10:55.415Z,12.16
2022-11-03T06:11:55.092Z,12.19
2022-11-03T06:12:55.102Z,12.21
2022-11-03T06:13:55.089Z,12.23
2022-11-03T06:14:55.096Z,12.23
2022-11-03T06:15:55.084Z,12.23
2022-11-03T06:16:55.051Z,12.23
2022-11-03T06:17:55.341Z,12.23
2022-11-03T06:18:55.028Z,12.24
2022-11-03T06:19:55.011Z,12.26
2022-11-03T06:20:55.026Z,12.26
2022-11-03T06:21:55.037Z,12.27
2022-11-03T06:22:54.985Z,12.26
2022-11-03T06:23:55.000Z,12.26
2022-11-03T06:24:55.276Z,12.26
2022-11-03T06:25:55.017Z,12.27
2022-11-03T06:26:54.970Z,12.30
2022-11-03T06:27:54.955Z,12.29
2022-11-03T06:28:54.914Z,12.34
2022-11-03T06:29:54.919Z,12.37
2022-11-03T06:30:54.903Z,12.37
2022-11-03T06:31:54.912Z,12.37
2022-11-03T06:32:54.942Z,12.37
2022-11-03T06:33:54.872Z,12.38
2022-11-03T06:34:54.880Z,12.37
2022-11-03T06:35:54.844Z,12.34
2022-11-03T06:36:54.841Z,12.34
2022-11-03T06:37:54.830Z,12.38
2022-11-03T06:38:54.889Z,12.38
2022-11-03T06:39:54.816Z,12.34
2022-11-03T06:40:54.785Z,12.37
2022-11-03T06:41:54.792Z,12.39
2022-11-03T06:42:54.793Z,12.42
2022-11-03T06:43:55.074Z,12.42
2022-11-03T06:44:54.778Z,12.45
2022-11-03T06:45:54.744Z,12.49
2022-11-03T06:46:54.725Z,12.51
2022-11-03T06:47:54.784Z,12.51
2022-11-03T06:48:54.732Z,12.54
2022-11-03T06:49:54.717Z,12.54
2022-11-03T06:50:54.704Z,12.56
2022-11-03T06:51:54.686Z,12.56
2022-11-03T06:52:54.691Z,12.56
2022-11-03T06:53:54.667Z,12.56
2022-11-03T06:54:54.647Z,12.56
2022-11-03T06:55:54.657Z,12.54
2022-11-03T06:56:55.345Z,12.52
2022-11-03T06:57:54.621Z,12.54
2022-11-03T06:58:54.597Z,12.56
2022-11-03T07:00:06.702Z,12.52
2022-11-03T07:00:58.953Z,12.52
2022-11-03T07:01:54.869Z,12.54
2022-11-03T07:02:54.625Z,12.52
2022-11-03T07:03:54.563Z,12.54
2022-11-03T07:04:54.548Z,12.52
2022-11-03T07:05:54.531Z,12.49
2022-11-03T07:06:54.547Z,12.51
2022-11-03T07:07:54.789Z,12.52
2022-11-03T07:08:54.573Z,12.52
2022-11-03T07:09:54.510Z,12.51
2022-11-03T07:10:54.484Z,12.49
2022-11-03T07:11:54.508Z,12.49
2022-11-03T07:12:54.485Z,12.51
2022-11-03T07:13:54.456Z,12.52
2022-11-03T07:14:54.832Z,12.52
2022-11-03T07:15:54.423Z,12.49
2022-11-03T07:16:54.455Z,12.41
2022-11-03T07:17:54.395Z,12.26
2022-11-03T07:18:54.414Z,12.08
2022-11-03T07:19:54.381Z,12.04
2022-11-03T07:20:54.393Z,11.96
2022-11-03T07:21:54.365Z,11.87
2022-11-03T07:22:54.352Z,11.83
2022-11-03T07:23:54.372Z,11.77
2022-11-03T07:24:54.348Z,11.72
2022-11-03T07:25:54.346Z,11.70
2022-11-03T07:26:54.400Z,11.65
2022-11-03T07:27:54.363Z,11.64
2022-11-03T07:28:54.353Z,11.61
2022-11-03T07:29:54.324Z,11.62
2022-11-03T07:30:54.308Z,11.65
2022-11-03T07:31:54.285Z,11.65
2022-11-03T07:32:54.348Z,11.67
2022-11-03T07:33:54.267Z,11.70
2022-11-03T07:34:54.258Z,11.74
2022-11-03T07:36:14.408Z,11.77
2022-11-03T07:36:56.013Z,11.83
2022-11-03T07:37:54.212Z,11.87
2022-11-03T07:38:54.233Z,11.96
2022-11-03T07:39:54.184Z,12.01
2022-11-03T07:40:54.202Z,12.05
2022-11-03T07:41:54.173Z,12.08
2022-11-03T07:42:54.193Z,12.11
2022-11-03T07:43:54.123Z,12.12
2022-11-03T07:44:54.166Z,12.15
2022-11-03T07:45:54.484Z,12.19
2022-11-03T07:46:54.140Z,12.19
2022-11-03T07:47:54.161Z,12.21
2022-11-03T07:48:54.107Z,12.23
2022-11-03T07:49:54.120Z,12.27
2022-11-03T07:50:54.143Z,12.29
2022-11-03T07:51:54.073Z,12.29
2022-11-03T07:52:54.042Z,12.31
2022-11-03T07:53:54.047Z,12.37
2022-11-03T07:54:54.033Z,12.37
2022-11-03T07:55:54.114Z,12.38
2022-11-03T07:56:54.067Z,12.39
2022-11-03T07:57:54.052Z,12.42
2022-11-03T07:58:54.412Z,12.44
2022-11-03T07:59:54.011Z,12.44
2022-11-03T08:00:54.110Z,12.45
2022-11-03T08:01:54.215Z,12.42
2022-11-03T08:02:54.129Z,12.44
2022-11-03T08:03:53.945Z,12.44
2022-11-03T08:04:53.955Z,12.44
2022-11-03T08:05:54.227Z,12.45
2022-11-03T08:06:53.881Z,12.44
2022-11-03T08:07:53.960Z,12.45
2022-11-03T08:08:53.967Z,12.46
2022-11-03T08:09:53.867Z,12.48
2022-11-03T08:10:53.868Z,12.48
2022-11-03T08:11:53.924Z,12.49
2022-11-03T08:12:54.177Z,12.49
2022-11-03T08:13:53.855Z,12.51
2022-11-03T08:14:54.090Z,12.49
2022-11-03T08:15:53.831Z,12.52
2022-11-03T08:16:53.835Z,12.52
2022-11-03T08:17:56.252Z,12.52
2022-11-03T08:18:53.777Z,12.54
2022-11-03T08:19:54.125Z,12.52
2022-11-03T08:20:53.847Z,12.52
2022-11-03T08:21:53.750Z,12.52
2022-11-03T08:23:19.663Z,12.49
2022-11-03T08:23:53.763Z,12.54
2022-11-03T08:24:53.822Z,12.51
2022-11-03T08:25:53.700Z,12.52
2022-11-03T08:26:54.088Z,12.51
2022-11-03T08:27:53.683Z,12.51
2022-11-03T08:28:53.691Z,12.54
2022-11-03T08:29:53.703Z,12.54
2022-11-03T08:30:53.701Z,12.59
2022-11-03T08:31:53.740Z,12.62
2022-11-03T08:32:53.755Z,12.62
2022-11-03T08:33:53.960Z,12.64
2022-11-03T08:34:53.688Z,12.66
2022-11-03T08:35:53.640Z,12.66
2022-11-03T08:36:53.620Z,12.70
2022-11-03T08:37:53.634Z,12.74
2022-11-03T08:38:53.691Z,12.77
2022-11-03T08:39:53.546Z,12.79
2022-11-03T08:40:55.322Z,12.82
2022-11-03T08:41:53.639Z,12.85
2022-11-03T08:42:53.551Z,12.88
2022-11-03T08:43:53.615Z,12.92
2022-11-03T08:44:53.599Z,12.97
2022-11-03T08:45:53.600Z,13.00
2022-11-03T08:46:53.494Z,13.02
2022-11-03T08:47:53.793Z,13.04
2022-11-03T08:48:53.480Z,13.07
2022-11-03T08:49:53.505Z,13.12
2022-11-03T08:50:53.531Z,13.18
2022-11-03T08:51:53.478Z,13.18
2022-11-03T08:52:53.440Z,13.20
2022-11-03T08:53:53.482Z,13.22
2022-11-03T08:54:53.777Z,13.21
2022-11-03T08:55:53.437Z,13.24
2022-11-03T08:56:53.480Z,13.27
2022-11-03T08:57:53.370Z,13.29
2022-11-03T08:58:53.399Z,13.32
2022-11-03T08:59:53.411Z,13.29
2022-11-03T09:00:53.429Z,13.33
2022-11-03T09:01:53.668Z,13.38
2022-11-03T09:02:53.349Z,13.37
2022-11-03T09:03:53.406Z,13.40
2022-11-03T09:04:53.302Z,13.44
2022-11-03T09:05:53.340Z,13.47
2022-11-03T09:06:53.299Z,13.51
2022-11-03T09:10:53.328Z,13.62
2022-11-03T09:11:53.297Z,13.65
2022-11-03T09:12:53.285Z,13.67
2022-11-03T09:13:53.206Z,13.69
2022-11-03T09:14:53.608Z,13.69
2022-11-03T09:15:53.195Z,13.70
2022-11-03T09:16:53.284Z,13.71
2022-11-03T09:17:53.162Z,13.74
2022-11-03T09:18:53.223Z,13.76
2022-11-03T09:19:53.187Z,13.77
2022-11-03T09:20:53.214Z,13.79
2022-11-03T09:21:53.398Z,13.83
2022-11-03T09:22:53.205Z,13.83
2022-11-03T09:23:53.135Z,13.87
2022-11-03T09:24:53.197Z,13.91
2022-11-03T09:25:53.170Z,13.91
2022-11-03T09:26:54.413Z,13.92
2022-11-03T09:27:53.081Z,13.98
2022-11-03T09:28:53.112Z,13.99
2022-11-03T09:30:12.252Z,13.98
2022-11-03T09:30:53.100Z,13.99
2022-11-03T09:31:53.152Z,14.01
2022-11-03T09:32:53.041Z,14.01
2022-11-03T09:33:53.048Z,14.07
2022-11-03T09:34:53.315Z,14.07
2022-11-03T09:35:52.948Z,14.13
2022-11-03T09:36:53.412Z,14.12
2022-11-03T09:37:53.003Z,14.14
2022-11-03T09:38:53.002Z,14.16
2022-11-03T09:39:52.968Z,14.17
2022-11-03T09:40:52.920Z,14.17
2022-11-03T09:41:58.608Z,14.21
2022-11-03T09:42:52.932Z,14.25
2022-11-03T09:43:52.910Z,14.25
2022-11-03T09:44:52.982Z,14.28
2022-11-03T09:45:52.885Z,14.29
2022-11-03T09:46:58.042Z,14.32
2022-11-03T09:47:52.817Z,14.31
2022-11-03T09:48:52.845Z,14.35
2022-11-03T09:49:52.823Z,14.37
2022-11-03T09:50:52.846Z,14.39
2022-11-03T09:51:52.874Z,14.42
2022-11-03T09:52:52.814Z,14.46
2022-11-03T09:53:52.821Z,14.49
2022-11-03T09:54:52.851Z,14.50
2022-11-03T09:55:52.862Z,14.50
2022-11-03T09:56:52.875Z,14.52
2022-11-03T09:57:52.748Z,14.56
2022-11-03T09:58:54.886Z,14.60
2022-11-03T09:59:52.739Z,14.60
2022-11-03T10:00:52.852Z,14.61
2022-11-03T10:01:52.864Z,14.61
2022-11-03T10:02:52.818Z,14.62
2022-11-03T10:03:52.793Z,14.67
2022-11-03T10:04:52.751Z,14.71
2022-11-03T10:05:53.092Z,14.78
2022-11-03T10:06:52.717Z,14.80
2022-11-03T10:07:52.705Z,14.88
2022-11-03T10:08:52.798Z,14.99
2022-11-03T10:09:52.680Z,14.99
2022-11-03T10:10:52.617Z,15.02
2022-11-03T10:11:52.592Z,14.98
2022-11-03T10:12:52.896Z,15.01
2022-11-03T10:13:52.616Z,15.01
2022-11-03T10:14:52.625Z,14.99
2022-11-03T10:15:52.566Z,14.94
2022-11-03T10:16:53.547Z,14.95
2022-11-03T10:17:52.583Z,14.99
2022-11-03T10:18:52.622Z,15.03
2022-11-03T10:19:52.833Z,15.06
2022-11-03T10:20:52.645Z,15.08
2022-11-03T10:21:52.533Z,15.06
2022-11-03T10:22:52.462Z,15.03
2022-11-03T10:23:52.569Z,15.02
2022-11-03T10:24:52.486Z,15.02
2022-11-03T10:25:52.468Z,15.02
2022-11-03T10:26:52.605Z,15.06
2022-11-03T10:27:52.423Z,15.12
2022-11-03T10:28:52.452Z,15.15
2022-11-03T10:29:56.423Z,15.17
2022-11-03T10:31:52.523Z,15.20
2022-11-03T10:32:52.763Z,15.21
2022-11-03T10:33:52.479Z,15.15
2022-11-03T10:34:52.403Z,15.23
2022-11-03T10:35:52.379Z,15.24
2022-11-03T10:36:52.408Z,15.26
2022-11-03T10:37:52.288Z,15.27
2022-11-03T10:38:52.375Z,15.28
2022-11-03T10:39:52.598Z,15.36
2022-11-03T10:40:52.441Z,15.41
2022-11-03T10:41:52.368Z,15.51
2022-11-03T10:42:52.288Z,15.52
2022-11-03T10:43:52.243Z,15.51
2022-11-03T10:44:52.328Z,15.63
2022-11-03T10:45:52.269Z,15.67
2022-11-03T10:46:52.358Z,15.74
2022-11-03T10:47:55.604Z,15.97
2022-11-03T10:48:52.244Z,16.18
2022-11-03T10:49:52.239Z,16.30
2022-11-03T10:50:52.321Z,16.42
2022-11-03T10:51:52.203Z,16.41
2022-11-03T10:52:52.538Z,16.31
2022-11-03T10:53:52.149Z,16.27
2022-11-03T10:54:52.230Z,16.30
2022-11-03T10:55:52.201Z,16.40
2022-11-03T10:56:52.213Z,16.40
2022-11-03T10:57:53.131Z,16.30
2022-11-03T10:58:52.170Z,16.22
2022-11-03T10:59:52.394Z,16.11
2022-11-03T11:00:52.177Z,15.96
2022-11-03T11:01:52.200Z,15.92
2022-11-03T11:02:52.166Z,15.96
2022-11-03T11:03:52.129Z,15.93
2022-11-03T11:04:52.067Z,15.93
2022-11-03T11:05:52.055Z,15.86
2022-11-03T11:06:52.374Z,15.85
2022-11-03T11:07:52.116Z,15.85
2022-11-03T11:08:56.006Z,15.84
2022-11-03T11:09:52.027Z,15.89
2022-11-03T11:10:52.001Z,15.85
2022-11-03T11:11:52.054Z,15.79
2022-11-03T11:12:51.970Z,15.75
2022-11-03T11:13:51.966Z,15.72
2022-11-03T11:14:52.021Z,15.74
2022-11-03T11:15:51.909Z,15.68
2022-11-03T11:16:51.934Z,15.67
2022-11-03T11:17:51.958Z,15.61
2022-11-03T11:18:51.928Z,15.61
2022-11-03T11:19:51.989Z,15.59
2022-11-03T11:20:52.037Z,15.61
2022-11-03T11:21:51.893Z,15.61
2022-11-03T11:22:51.883Z,15.64
2022-11-03T11:23:51.864Z,15.66
2022-11-03T11:24:51.918Z,15.63
2022-11-03T11:25:51.864Z,15.63
2022-11-03T11:26:51.942Z,15.54
2022-11-03T11:27:55.481Z,15.49
2022-11-03T11:28:51.784Z,15.46
2022-11-03T11:29:51.859Z,15.46
2022-11-03T11:30:52.863Z,15.46
2022-11-03T11:31:51.750Z,15.46
2022-11-03T11:32:51.819Z,15.46
2022-11-03T11:33:51.730Z,15.45
2022-11-03T11:34:51.721Z,15.46
2022-11-03T11:35:56.492Z,15.45
2022-11-03T11:36:51.720Z,15.42
2022-11-03T11:37:51.778Z,15.39
2022-11-03T11:38:51.918Z,15.39
2022-11-03T11:39:51.649Z,15.43
2022-11-03T11:40:51.678Z,15.43
2022-11-03T11:41:52.045Z,15.41
2022-11-03T11:42:51.643Z,15.38
2022-11-03T11:43:51.619Z,15.38
2022-11-03T11:44:52.511Z,15.33
2022-11-03T11:45:51.667Z,15.31
2022-11-03T11:46:52.397Z,15.28
2022-11-03T11:47:51.624Z,15.28
2022-11-03T11:48:51.635Z,15.30
2022-11-03T11:49:51.913Z,15.31
2022-11-03T11:50:51.630Z,15.33
2022-11-03T11:51:51.554Z,15.31
2022-11-03T11:52:51.570Z,15.33
2022-11-03T11:54:10.004Z,15.35
2022-11-03T11:54:51.539Z,15.30
2022-11-03T11:55:51.536Z,15.33
2022-11-03T11:56:51.622Z,15.28
2022-11-03T11:57:51.540Z,15.31
2022-11-03T11:58:51.536Z,15.31
2022-11-03T11:59:51.562Z,15.27
2022-11-03T12:00:51.419Z,15.27
2022-11-03T12:01:51.601Z,15.26
2022-11-03T12:02:51.870Z,15.27
2022-11-03T12:03:51.699Z,15.27
2022-11-03T12:04:51.585Z,15.24
2022-11-03T12:05:51.501Z,15.24
2022-11-03T12:06:51.413Z,15.21
2022-11-03T12:07:51.413Z,15.13
2022-11-03T12:08:51.539Z,15.09
2022-11-03T12:09:51.467Z,15.09
2022-11-03T12:10:51.475Z,15.06
2022-11-03T12:11:55.488Z,15.12
2022-11-03T12:12:51.338Z,15.17
2022-11-03T12:13:51.434Z,15.19
2022-11-03T12:14:51.705Z,15.17
2022-11-03T12:15:51.355Z,15.23
2022-11-03T12:16:51.363Z,15.28
2022-11-03T12:17:51.280Z,15.33
2022-11-03T12:18:51.360Z,15.36
2022-11-03T12:19:51.235Z,15.35
2022-11-03T12:20:51.310Z,15.41
2022-11-03T12:21:51.326Z,15.61
2022-11-03T12:22:51.212Z,15.66
2022-11-03T12:23:51.217Z,15.76
2022-11-03T12:24:51.276Z,15.84
2022-11-03T12:25:51.193Z,15.89
2022-11-03T12:26:51.342Z,16.00
2022-11-03T12:27:52.308Z,16.31
2022-11-03T12:28:51.161Z,16.31
2022-11-03T12:29:51.197Z,16.37
2022-11-03T12:30:51.286Z,16.45
2022-11-03T12:31:51.238Z,16.45
2022-11-03T12:32:51.630Z,16.67
2022-11-03T12:33:51.140Z,16.81
2022-11-03T12:34:51.137Z,16.78
2022-11-03T12:35:51.144Z,16.65
2022-11-03T12:36:55.886Z,16.77
2022-11-03T12:37:51.077Z,16.98
2022-11-03T12:38:51.094Z,17.43
2022-11-03T12:39:51.330Z,17.41
2022-11-03T12:40:51.163Z,17.40
2022-11-03T12:41:51.037Z,17.32
2022-11-03T12:42:51.020Z,17.17
2022-11-03T12:43:51.111Z,17.04
2022-11-03T12:44:51.080Z,17.11
2022-11-03T12:45:51.887Z,16.96
2022-11-03T12:46:51.407Z,16.59
2022-11-03T12:47:50.964Z,16.37
2022-11-03T12:48:51.028Z,16.25
2022-11-03T12:49:51.015Z,16.12
2022-11-03T12:50:50.975Z,16.04
2022-11-03T12:51:50.913Z,16.01
2022-11-03T12:52:50.954Z,15.96
2022-11-03T12:53:51.178Z,15.96
2022-11-03T12:54:50.881Z,15.97
2022-11-03T12:55:50.904Z,15.97
2022-11-03T12:56:51.026Z,15.97
2022-11-03T12:57:50.946Z,15.97
2022-11-03T12:58:50.892Z,15.96